createdAt,value
2019-05-22T00:01:00.728Z,8.08
2019-05-22T00:03:31.163Z,8.38
2019-05-22T00:05:59.895Z,6.28
2019-05-22T00:08:30.414Z,7.03
2019-05-22T00:10:59.614Z,8.60
2019-05-22T00:13:34.940Z,8.98
2019-05-22T00:16:04.300Z,10.03
2019-05-22T00:18:33.919Z,14.07
2019-05-22T00:21:04.552Z,11.90
2019-05-22T00:23:33.610Z,12.53
2019-05-22T00:26:02.637Z,15.95
2019-05-22T00:28:32.159Z,12.93
2019-05-22T00:31:01.554Z,5.45
2019-05-22T00:33:31.362Z,10.75
2019-05-22T00:36:00.791Z,12.55
2019-05-22T00:38:31.753Z,17.87
2019-05-22T00:41:05.100Z,52.70
2019-05-22T00:43:41.967Z,24.50
2019-05-22T00:46:12.576Z,12.95
2019-05-22T00:48:41.922Z,11.30
2019-05-22T00:51:22.532Z,3.45
2019-05-22T00:54:09.491Z,4.72
2019-05-22T00:56:52.009Z,7.35
2019-05-22T00:59:36.787Z,9.05
2019-05-22T01:02:19.544Z,6.22
2019-05-22T01:04:49.845Z,11.15
2019-05-22T01:07:18.562Z,12.40
2019-05-22T01:09:53.081Z,13.45
2019-05-22T01:12:43.748Z,13.58
2019-05-22T01:15:15.093Z,20.90
2019-05-22T01:17:45.115Z,25.02
2019-05-22T01:20:19.546Z,25.68
2019-05-22T01:22:49.320Z,35.65
2019-05-22T01:25:20.898Z,24.70
2019-05-22T01:27:49.807Z,9.70
2019-05-22T01:30:23.705Z,6.58
2019-05-22T01:32:54.544Z,8.63
2019-05-22T01:35:37.011Z,10.98
2019-05-22T01:38:06.502Z,12.98
2019-05-22T01:40:42.480Z,11.75
2019-05-22T01:43:13.041Z,7.50
2019-05-22T01:45:44.356Z,5.62
2019-05-22T01:48:18.098Z,4.72
2019-05-22T01:50:49.282Z,3.90
2019-05-22T01:53:21.033Z,7.58
2019-05-22T01:55:52.452Z,10.70
2019-05-22T01:58:21.802Z,10.60
2019-05-22T02:00:53.787Z,18.52
2019-05-22T02:03:25.357Z,15.55
2019-05-22T02:05:55.164Z,18.12
2019-05-22T02:08:25.490Z,16.32
2019-05-22T02:10:58.252Z,10.78
2019-05-22T02:13:31.608Z,10.82
2019-05-22T02:16:01.834Z,9.70
2019-05-22T02:18:34.165Z,10.48
2019-05-22T02:21:05.648Z,14.95
2019-05-22T02:23:36.050Z,8.60
2019-05-22T02:26:07.522Z,10.08
2019-05-22T02:28:39.039Z,12.78
2019-05-22T02:31:07.748Z,21.70
2019-05-22T02:33:39.477Z,20.00
2019-05-22T02:36:08.132Z,22.42
2019-05-22T02:38:37.640Z,21.05
2019-05-22T02:41:08.448Z,19.55
2019-05-22T02:43:37.386Z,21.02
2019-05-22T02:46:07.679Z,26.05
2019-05-22T02:48:37.273Z,29.42
2019-05-22T02:51:06.057Z,23.02
2019-05-22T02:53:35.157Z,26.07
2019-05-22T02:56:04.088Z,26.27
2019-05-22T02:58:33.573Z,23.80
2019-05-22T03:01:05.602Z,20.08
2019-05-22T03:03:35.351Z,28.60
2019-05-22T03:06:10.272Z,29.87
2019-05-22T03:08:58.402Z,21.23
2019-05-22T03:11:39.775Z,20.80
2019-05-22T03:14:09.436Z,12.40
2019-05-22T03:16:56.432Z,18.27
2019-05-22T03:19:41.288Z,11.90
2019-05-22T03:22:31.451Z,11.03
2019-05-22T03:25:05.441Z,17.95
2019-05-22T03:27:40.017Z,11.90
2019-05-22T03:30:24.511Z,11.60
2019-05-22T03:32:56.722Z,18.42
2019-05-22T03:35:28.145Z,15.30
2019-05-22T03:37:59.305Z,17.25
2019-05-22T03:40:31.009Z,12.40
2019-05-22T03:43:04.114Z,11.18
2019-05-22T03:45:33.269Z,18.05
2019-05-22T03:48:05.276Z,11.15
2019-05-22T03:50:34.247Z,14.35
2019-05-22T03:53:18.141Z,14.47
2019-05-22T03:55:49.043Z,8.85
2019-05-22T03:58:21.271Z,10.03
2019-05-22T04:00:53.115Z,5.25
2019-05-22T04:03:24.427Z,8.63
2019-05-22T04:05:54.366Z,9.28
2019-05-22T04:08:26.680Z,11.20
2019-05-22T04:11:09.896Z,5.60
2019-05-22T04:13:39.510Z,8.33
2019-05-22T04:16:10.514Z,3.70
2019-05-22T04:18:40.880Z,6.20
2019-05-22T04:21:09.621Z,9.60
2019-05-22T04:23:40.312Z,5.97
2019-05-22T04:26:12.799Z,8.40
2019-05-22T04:28:47.743Z,9.88
2019-05-22T04:31:16.923Z,8.33
2019-05-22T04:33:45.666Z,10.13
2019-05-22T04:36:15.221Z,7.45
2019-05-22T04:38:46.521Z,8.98
2019-05-22T04:41:16.993Z,12.73
2019-05-22T04:43:45.808Z,10.55
2019-05-22T04:46:16.712Z,8.05
2019-05-22T04:48:46.612Z,9.88
2019-05-22T04:51:23.603Z,12.43
2019-05-22T04:53:53.536Z,13.35
2019-05-22T04:56:23.029Z,12.33
2019-05-22T04:58:53.483Z,23.18
2019-05-22T05:01:24.152Z,11.48
2019-05-22T05:03:53.583Z,10.72
2019-05-22T05:06:25.017Z,14.10
2019-05-22T05:08:54.324Z,10.72
2019-05-22T05:11:23.232Z,13.53
2019-05-22T05:13:52.211Z,9.93
2019-05-22T05:16:20.868Z,11.75
2019-05-22T05:18:49.511Z,4.58
2019-05-22T05:21:18.610Z,10.68
2019-05-22T05:23:47.487Z,16.82
2019-05-22T05:26:16.818Z,13.20
2019-05-22T05:28:46.297Z,9.20
2019-05-22T05:31:15.338Z,16.05
2019-05-22T05:33:55.759Z,23.85
2019-05-22T05:36:24.610Z,13.53
2019-05-22T05:38:56.307Z,10.58
2019-05-22T05:41:24.884Z,10.13
2019-05-22T05:43:53.736Z,20.52
2019-05-22T05:46:22.484Z,8.00
2019-05-22T05:48:52.397Z,7.80
2019-05-22T05:51:23.374Z,15.10
2019-05-22T05:54:04.854Z,18.23
2019-05-22T05:56:35.699Z,8.93
2019-05-22T05:59:07.650Z,13.88
2019-05-22T06:01:41.400Z,8.58
2019-05-22T06:04:12.427Z,7.95
2019-05-22T06:06:44.049Z,10.53
2019-05-22T06:09:16.840Z,11.90
2019-05-22T06:11:48.858Z,5.83
2019-05-22T06:14:30.066Z,18.07
2019-05-22T06:17:08.747Z,18.52
2019-05-22T06:19:46.553Z,7.45
2019-05-22T06:22:17.358Z,8.15
2019-05-22T06:24:52.194Z,7.28
2019-05-22T06:27:25.746Z,8.55
2019-05-22T06:30:06.349Z,5.90
2019-05-22T06:33:15.108Z,7.00
2019-05-22T06:35:46.267Z,4.33
2019-05-22T06:38:48.009Z,10.68
2019-05-22T06:41:18.851Z,11.43
2019-05-22T06:43:50.722Z,7.50
2019-05-22T06:46:44.643Z,8.03
2019-05-22T06:49:32.503Z,6.87
2019-05-22T06:52:01.876Z,10.85
2019-05-22T06:54:30.738Z,11.73
2019-05-22T06:56:59.401Z,11.73
2019-05-22T06:59:28.343Z,8.35
2019-05-22T07:02:01.521Z,12.13
2019-05-22T07:04:30.972Z,10.45
2019-05-22T07:07:00.466Z,12.85
2019-05-22T07:09:29.733Z,7.10
2019-05-22T07:11:58.661Z,9.83
2019-05-22T07:14:28.858Z,7.80
2019-05-22T07:17:00.063Z,11.15
2019-05-22T07:19:29.195Z,12.58
2019-05-22T07:21:59.029Z,10.28
2019-05-22T07:24:29.279Z,9.43
2019-05-22T07:27:01.118Z,15.25
2019-05-22T07:29:30.309Z,10.15
2019-05-22T07:32:02.324Z,8.73
2019-05-22T07:34:31.131Z,9.23
2019-05-22T07:36:59.985Z,13.60
2019-05-22T07:39:33.373Z,12.07
2019-05-22T07:42:02.033Z,9.48
2019-05-22T07:44:30.735Z,10.45
2019-05-22T07:47:00.065Z,9.30
2019-05-22T07:49:29.217Z,7.22
2019-05-22T07:52:01.724Z,11.35
2019-05-22T07:54:28.724Z,5.83
2019-05-22T07:56:57.601Z,9.83
2019-05-22T07:59:26.472Z,10.28
2019-05-22T08:01:58.457Z,10.72
2019-05-22T08:04:27.438Z,6.05
2019-05-22T08:06:56.788Z,5.78
2019-05-22T08:09:26.094Z,6.62
2019-05-22T08:11:54.906Z,5.70
2019-05-22T08:14:24.357Z,5.87
2019-05-22T08:16:53.572Z,9.98
2019-05-22T08:19:23.344Z,3.45
2019-05-22T08:22:06.256Z,8.05
2019-05-22T08:24:24.767Z,12.80
2019-05-22T08:26:55.176Z,9.08
2019-05-22T08:29:24.284Z,6.20
2019-05-22T08:31:53.467Z,10.23
2019-05-22T08:34:24.210Z,7.37
2019-05-22T08:36:54.125Z,7.65
2019-05-22T08:39:23.762Z,3.92
2019-05-22T08:41:58.842Z,9.93
2019-05-22T08:44:24.622Z,5.25
2019-05-22T08:46:53.861Z,15.93
2019-05-22T08:49:23.947Z,3.87
2019-05-22T08:51:52.869Z,2.75
2019-05-22T08:54:21.932Z,4.00
2019-05-22T08:56:52.035Z,5.78
2019-05-22T08:59:21.590Z,3.72
2019-05-22T09:01:50.636Z,3.50
2019-05-22T09:04:23.729Z,3.15
2019-05-22T09:06:52.502Z,1.75
2019-05-22T09:09:21.343Z,0.33
2019-05-22T09:11:50.137Z,2.62
2019-05-22T09:14:19.042Z,1.90
2019-05-22T09:16:47.994Z,1.67
2019-05-22T09:19:16.840Z,2.95
2019-05-22T09:21:45.793Z,2.10
2019-05-22T09:24:16.804Z,4.03
2019-05-22T09:26:45.556Z,1.80
2019-05-22T09:29:14.427Z,2.75
2019-05-22T09:31:43.385Z,0.93
2019-05-22T09:34:12.149Z,1.35
2019-05-22T09:36:41.016Z,2.05
2019-05-22T09:39:10.661Z,2.12
2019-05-22T09:41:39.335Z,3.33
2019-05-22T09:44:08.286Z,2.20
2019-05-22T09:46:36.928Z,2.72
2019-05-22T09:49:06.150Z,2.15
2019-05-22T09:51:34.836Z,4.28
2019-05-22T09:54:03.776Z,1.15
2019-05-22T09:56:32.606Z,0.30
2019-05-22T09:59:01.790Z,0.40
2019-05-22T10:01:31.093Z,5.28
2019-05-22T10:03:59.955Z,4.85
2019-05-22T10:06:28.668Z,1.42
2019-05-22T10:08:57.420Z,2.83
2019-05-22T10:11:27.759Z,3.12
2019-05-22T10:13:58.034Z,1.27
2019-05-22T10:16:26.733Z,5.75
2019-05-22T10:18:55.606Z,0.37
2019-05-22T10:21:24.691Z,0.78
2019-05-22T10:23:53.798Z,0.60
2019-05-22T10:26:22.923Z,0.57
2019-05-22T10:28:53.227Z,1.12
2019-05-22T10:31:22.631Z,0.55
2019-05-22T10:33:52.174Z,0.40
2019-05-22T10:36:22.751Z,1.65
2019-05-22T10:38:51.605Z,1.47
2019-05-22T10:41:21.222Z,1.82
2019-05-22T10:43:50.942Z,0.88
2019-05-22T10:46:19.619Z,1.17
2019-05-22T10:48:49.267Z,0.55
2019-05-22T10:51:18.126Z,2.33
2019-05-22T10:53:47.439Z,0.80
2019-05-22T10:56:19.311Z,1.42
2019-05-22T10:58:48.455Z,0.95
2019-05-22T11:01:17.484Z,1.85
2019-05-22T11:03:47.074Z,1.35
2019-05-22T11:06:16.272Z,1.02
2019-05-22T11:08:45.360Z,3.08
2019-05-22T11:11:15.143Z,0.42
2019-05-22T11:13:59.862Z,2.02
2019-05-22T11:16:14.541Z,0.88
2019-05-22T11:18:43.664Z,1.22
2019-05-22T11:21:12.501Z,2.33
2019-05-22T11:23:51.580Z,1.07
2019-05-22T11:26:12.072Z,0.95
2019-05-22T11:28:40.901Z,2.08
2019-05-22T11:31:09.526Z,1.77
2019-05-22T11:33:38.211Z,0.30
2019-05-22T11:36:07.437Z,3.67
2019-05-22T11:38:36.112Z,0.98
2019-05-22T11:41:05.804Z,1.40
2019-05-22T11:43:37.528Z,4.10
2019-05-22T11:46:06.364Z,0.60
2019-05-22T11:48:35.143Z,1.67
2019-05-22T11:51:03.846Z,1.40
2019-05-22T11:53:32.711Z,0.42
2019-05-22T11:56:01.422Z,3.87
2019-05-22T11:58:30.116Z,0.70
2019-05-22T12:00:58.766Z,2.00
2019-05-22T12:03:28.969Z,0.75
2019-05-22T12:05:58.103Z,2.85
2019-05-22T12:08:27.203Z,1.00
2019-05-22T12:10:56.510Z,0.45
2019-05-22T12:13:26.044Z,1.65
2019-05-22T12:15:56.362Z,1.77
2019-05-22T12:18:26.117Z,1.45
2019-05-22T12:20:54.783Z,4.53
2019-05-22T12:23:24.305Z,2.37
2019-05-22T12:25:53.052Z,2.42
2019-05-22T12:28:22.030Z,2.37
2019-05-22T12:30:50.871Z,0.37
2019-05-22T12:33:19.923Z,0.68
2019-05-22T12:35:49.352Z,3.25
2019-05-22T12:38:26.688Z,0.85
2019-05-22T12:40:54.381Z,1.60
2019-05-22T12:43:23.709Z,1.30
2019-05-22T12:45:53.573Z,0.70
2019-05-22T12:48:23.587Z,1.67
2019-05-22T12:50:52.427Z,5.87
2019-05-22T12:53:23.177Z,5.25
2019-05-22T12:55:52.595Z,2.15
2019-05-22T12:58:21.526Z,0.55
2019-05-22T13:00:50.686Z,0.62
2019-05-22T13:03:20.998Z,0.98
2019-05-22T13:05:51.241Z,1.52
2019-05-22T13:08:21.747Z,1.20
2019-05-22T13:10:50.744Z,3.15
2019-05-22T13:13:20.066Z,3.40
2019-05-22T13:15:49.600Z,1.65
2019-05-22T13:18:20.636Z,1.00
2019-05-22T13:20:50.984Z,1.45
2019-05-22T13:23:22.784Z,0.72
2019-05-22T13:25:52.178Z,1.05
2019-05-22T13:28:21.888Z,2.58
2019-05-22T13:30:53.605Z,3.92
2019-05-22T13:33:25.907Z,3.35
2019-05-22T13:35:56.117Z,2.27
2019-05-22T13:38:25.090Z,3.02
2019-05-22T13:40:54.196Z,1.65
2019-05-22T13:43:24.045Z,1.65
2019-05-22T13:45:53.466Z,2.15
2019-05-22T13:48:22.188Z,3.22
2019-05-22T13:50:51.546Z,2.90
2019-05-22T13:53:22.420Z,1.37
2019-05-22T13:55:52.033Z,4.03
2019-05-22T13:58:21.671Z,2.50
2019-05-22T14:00:51.669Z,0.50
2019-05-22T14:03:20.898Z,1.22
2019-05-22T14:05:50.143Z,2.58
2019-05-22T14:08:19.461Z,0.45
2019-05-22T14:10:50.188Z,1.82
2019-05-22T14:13:19.206Z,0.95
2019-05-22T14:15:55.790Z,3.65
2019-05-22T14:18:18.764Z,2.37
2019-05-22T14:20:49.170Z,1.12
2019-05-22T14:23:18.130Z,2.33
2019-05-22T14:25:50.194Z,1.07
2019-05-22T14:28:19.322Z,0.45
2019-05-22T14:30:48.111Z,0.75
2019-05-22T14:33:16.951Z,0.55
2019-05-22T14:35:48.736Z,1.45
2019-05-22T14:38:17.211Z,1.80
2019-05-22T14:40:46.012Z,1.98
2019-05-22T14:43:15.086Z,1.92
2019-05-22T14:45:43.931Z,0.75
2019-05-22T14:48:13.136Z,1.40
2019-05-22T14:50:41.949Z,2.00
2019-05-22T14:53:12.479Z,4.55
2019-05-22T14:55:41.568Z,2.45
2019-05-22T14:58:11.691Z,2.90
2019-05-22T15:00:41.757Z,5.35
2019-05-22T15:03:11.231Z,5.40
2019-05-22T15:05:40.196Z,1.32
2019-05-22T15:08:08.952Z,2.15
2019-05-22T15:10:38.252Z,3.05
2019-05-22T15:13:08.058Z,1.10
2019-05-22T15:15:40.313Z,2.55
2019-05-22T15:18:07.513Z,1.80
2019-05-22T15:20:44.453Z,6.72
2019-05-22T15:23:13.575Z,5.05
2019-05-22T15:25:42.251Z,1.05
2019-05-22T15:28:11.968Z,2.37
2019-05-22T15:30:41.039Z,2.37
2019-05-22T15:33:09.796Z,2.47
2019-05-22T15:35:38.759Z,1.37
2019-05-22T15:38:10.427Z,2.17
2019-05-22T15:40:39.747Z,1.57
2019-05-22T15:43:09.653Z,3.83
2019-05-22T15:45:40.231Z,1.00
2019-05-22T15:48:12.319Z,2.42
2019-05-22T15:50:44.909Z,4.22
2019-05-22T15:53:15.303Z,6.35
2019-05-22T15:55:47.661Z,1.77
2019-05-22T15:58:18.126Z,1.60
2019-05-22T16:00:47.741Z,1.55
2019-05-22T16:03:21.260Z,3.60
2019-05-22T16:05:51.673Z,9.95
2019-05-22T16:08:20.776Z,1.52
2019-05-22T16:10:52.356Z,2.62
2019-05-22T16:13:22.986Z,4.62
2019-05-22T16:15:54.831Z,1.45
2019-05-22T16:18:28.484Z,1.25
2019-05-22T16:21:01.373Z,1.10
2019-05-22T16:23:33.216Z,1.82
2019-05-22T16:26:03.537Z,5.00
2019-05-22T16:28:36.305Z,1.62
2019-05-22T16:31:07.797Z,3.58
2019-05-22T16:33:38.017Z,1.37
2019-05-22T16:36:06.995Z,4.75
2019-05-22T16:38:37.648Z,2.52
2019-05-22T16:41:06.825Z,2.42
2019-05-22T16:43:49.033Z,2.12
2019-05-22T16:46:10.030Z,2.20
2019-05-22T16:48:39.812Z,2.05
2019-05-22T16:51:10.421Z,1.85
2019-05-22T16:53:40.165Z,4.30
2019-05-22T16:56:11.324Z,3.77
2019-05-22T16:58:40.203Z,1.80
2019-05-22T17:01:10.190Z,5.10
2019-05-22T17:03:40.346Z,3.45
2019-05-22T17:06:09.162Z,2.02
2019-05-22T17:08:37.802Z,2.92
2019-05-22T17:11:08.033Z,2.52
2019-05-22T17:13:36.926Z,3.67
2019-05-22T17:16:06.981Z,2.40
2019-05-22T17:18:46.623Z,3.47
2019-05-22T17:21:08.913Z,4.45
2019-05-22T17:23:37.647Z,4.87
2019-05-22T17:26:07.318Z,2.22
2019-05-22T17:28:36.243Z,4.62
2019-05-22T17:31:05.995Z,3.72
2019-05-22T17:33:35.486Z,1.45
2019-05-22T17:36:05.787Z,4.37
2019-05-22T17:38:35.351Z,1.50
2019-05-22T17:41:04.801Z,6.75
2019-05-22T17:43:34.208Z,5.50
2019-05-22T17:46:04.292Z,1.87
2019-05-22T17:48:33.814Z,1.47
2019-05-22T17:51:03.131Z,1.27
2019-05-22T17:53:31.861Z,3.60
2019-05-22T17:56:00.533Z,4.60
2019-05-22T17:58:30.381Z,6.83
2019-05-22T18:01:00.573Z,6.10
2019-05-22T18:03:29.473Z,9.73
2019-05-22T18:05:58.567Z,5.67
2019-05-22T18:08:28.039Z,3.30
2019-05-22T18:10:57.264Z,5.42
2019-05-22T18:13:26.381Z,5.67
2019-05-22T18:15:55.084Z,1.72
2019-05-22T18:18:23.802Z,4.72
2019-05-22T18:20:52.483Z,4.47
2019-05-22T18:23:21.302Z,3.55
2019-05-22T18:25:50.238Z,7.90
2019-05-22T18:28:19.278Z,10.08
2019-05-22T18:30:48.171Z,4.72
2019-05-22T18:33:16.820Z,3.67
2019-05-22T18:35:45.479Z,3.20
2019-05-22T18:38:14.212Z,5.05
2019-05-22T18:40:42.788Z,2.77
2019-05-22T18:43:11.841Z,3.58
2019-05-22T18:45:40.665Z,6.10
2019-05-22T18:48:09.823Z,4.22
2019-05-22T18:50:38.683Z,3.55
2019-05-22T18:53:07.728Z,2.12
2019-05-22T18:55:36.423Z,4.37
2019-05-22T18:58:05.300Z,3.47
2019-05-22T19:00:34.532Z,1.92
2019-05-22T19:03:03.469Z,3.72
2019-05-22T19:05:36.059Z,4.05
2019-05-22T19:08:07.610Z,3.95
2019-05-22T19:10:36.403Z,3.45
2019-05-22T19:13:05.215Z,1.75
2019-05-22T19:15:33.890Z,6.58
2019-05-22T19:18:02.641Z,4.05
2019-05-22T19:20:31.381Z,2.58
2019-05-22T19:23:03.174Z,1.65
2019-05-22T19:25:32.006Z,2.37
2019-05-22T19:28:00.763Z,3.90
2019-05-22T19:30:29.986Z,2.25
2019-05-22T19:32:58.908Z,4.17
2019-05-22T19:35:27.609Z,1.90
2019-05-22T19:37:56.692Z,2.65
2019-05-22T19:40:25.492Z,1.85
2019-05-22T19:42:54.706Z,4.78
2019-05-22T19:45:23.427Z,4.05
2019-05-22T19:47:55.903Z,2.70
2019-05-22T19:50:25.758Z,1.72
2019-05-22T19:52:55.763Z,3.02
2019-05-22T19:55:27.724Z,3.27
2019-05-22T19:57:57.407Z,3.22
2019-05-22T20:00:26.517Z,2.42
2019-05-22T20:02:55.541Z,5.05
2019-05-22T20:05:26.076Z,3.62
2019-05-22T20:07:55.489Z,2.58
2019-05-22T20:10:25.466Z,3.37
2019-05-22T20:12:54.711Z,9.20
2019-05-22T20:15:24.047Z,11.80
2019-05-22T20:17:52.703Z,10.40
2019-05-22T20:20:23.281Z,6.42
2019-05-22T20:22:52.346Z,6.28
2019-05-22T20:25:22.193Z,6.97
2019-05-22T20:27:51.283Z,13.75
2019-05-22T20:30:21.974Z,9.10
2019-05-22T20:32:51.042Z,10.78
2019-05-22T20:35:20.456Z,8.63
2019-05-22T20:37:49.481Z,13.40
2019-05-22T20:40:20.396Z,11.03
2019-05-22T20:42:49.452Z,16.15
2019-05-22T20:45:21.168Z,13.32
2019-05-22T20:47:54.413Z,8.10
2019-05-22T20:50:24.545Z,9.10
2019-05-22T20:52:53.467Z,5.10
2019-05-22T20:55:22.728Z,4.08
2019-05-22T20:57:53.127Z,5.08
2019-05-22T21:00:21.951Z,3.72
2019-05-22T21:02:53.643Z,2.33
2019-05-22T21:05:25.429Z,3.08
2019-05-22T21:07:57.001Z,4.70
2019-05-22T21:10:26.147Z,5.55
2019-05-22T21:12:56.437Z,8.73
2019-05-22T21:15:25.159Z,6.22
2019-05-22T21:17:55.786Z,7.58
2019-05-22T21:20:25.904Z,11.05
2019-05-22T21:22:54.933Z,10.18
2019-05-22T21:25:25.003Z,6.72
2019-05-22T21:27:54.029Z,5.45
2019-05-22T21:30:24.064Z,9.93
2019-05-22T21:32:53.818Z,6.00
2019-05-22T21:35:23.736Z,6.35
2019-05-22T21:37:52.845Z,5.75
2019-05-22T21:40:24.535Z,5.85
2019-05-22T21:42:54.892Z,7.15
2019-05-22T21:45:24.174Z,5.65
2019-05-22T21:47:52.857Z,4.42
2019-05-22T21:50:21.971Z,3.33
2019-05-22T21:52:50.608Z,7.05
2019-05-22T21:55:20.024Z,3.45
2019-05-22T21:57:48.911Z,2.72
2019-05-22T22:00:25.028Z,5.80
2019-05-22T22:02:54.757Z,2.67
2019-05-22T22:05:23.673Z,4.58
2019-05-22T22:07:52.550Z,2.72
2019-05-22T22:10:22.779Z,3.35
2019-05-22T22:12:53.624Z,2.12
2019-05-22T22:15:34.860Z,4.42
2019-05-22T22:18:06.457Z,5.45
2019-05-22T22:20:35.547Z,2.92
2019-05-22T22:23:05.466Z,2.80
2019-05-22T22:25:34.600Z,2.72
2019-05-22T22:28:03.391Z,3.90
2019-05-22T22:30:50.143Z,2.47
2019-05-22T22:33:23.577Z,1.72
2019-05-22T22:35:53.911Z,4.95
2019-05-22T22:38:25.034Z,2.85
2019-05-22T22:40:56.962Z,6.35
2019-05-22T22:43:32.542Z,3.12
2019-05-22T22:46:19.954Z,6.17
2019-05-22T22:48:51.840Z,3.22
2019-05-22T22:51:22.307Z,3.80
2019-05-22T22:53:51.860Z,5.05
2019-05-22T22:56:20.866Z,2.52
2019-05-22T22:58:49.579Z,1.60
2019-05-22T23:01:21.491Z,1.77
2019-05-22T23:03:52.850Z,1.77
2019-05-22T23:06:21.792Z,5.28
2019-05-22T23:08:51.900Z,2.40
2019-05-22T23:11:22.627Z,2.27
2019-05-22T23:13:52.642Z,2.08
2019-05-22T23:16:23.156Z,2.90
2019-05-22T23:19:13.330Z,5.45
2019-05-22T23:21:40.684Z,4.85
2019-05-22T23:24:09.896Z,2.33
2019-05-22T23:26:40.273Z,2.77
2019-05-22T23:29:09.004Z,2.17
2019-05-22T23:31:38.370Z,3.45
2019-05-22T23:34:09.127Z,2.87
2019-05-22T23:36:39.508Z,1.85
2019-05-22T23:39:12.961Z,1.77
2019-05-22T23:41:43.131Z,2.10
2019-05-22T23:44:14.462Z,2.60
2019-05-22T23:46:45.018Z,2.58
2019-05-22T23:49:16.053Z,3.77
2019-05-22T23:51:45.498Z,3.40
2019-05-22T23:54:14.359Z,1.55
2019-05-22T23:56:44.447Z,4.05
2019-05-22T23:59:16.763Z,1.98
